Terminal Aerodrome Forecast
Issued by NWS

Home | Current Version | Previous Version | Text Only | Print | Product List | Glossary On
Versions: 1 2 3 4 5 6 7 8 9 10 11 12 13 14 15
000
FTUS42 KFFC 291120
TAFPDK
TAF
KPDK 291120Z 2912/3012 00000KT P6SM SCT009 BKN020
     FM291400 12005KT P6SM BKN015 BKN035 OVC150
     FM291800 15005KT P6SM -SHRA SCT025 BKN040 OVC150
     FM300100 VRB03KT P6SM VCSH SCT050 OVC090
     FM300900 VRB03KT P6SM -SHRA SCT005 OVC040=

USA.gov is the U.S. government's official web portal to all federal, state and local government web resources and services.